Terminal Aerodrome Forecast
Issued by NWS

Home | Current Version | Previous Version | Text Only | Print | Product List | Glossary On
Versions: 1 2 3 4 5 6 7 8 9 10 11 12 13 14 15 16 17 18 19 20
000
FTUS43 KEAX 291131
TAFMKC
TAF
KMKC 291131Z 2912/3012 03007KT P6SM SCT020 BKN035
     FM291700 05010KT P6SM SCT020 BKN035
     FM292200 08014KT 6SM -SHRA SCT025 OVC035
     FM300000 09010KT 6SM -SHRA VCTS BKN025CB OVC070
     FM300600 10011KT 5SM -SHRA SCT010 OVC015=

USA.gov is the U.S. government's official web portal to all federal, state and local government web resources and services.